Terminal Aerodrome Forecast
Issued by NWS Charleston, WV

Current Version | Previous Version | Graphics & Text | Print | Product List | Glossary On
Versions: 1 2 3 4 5 6 7 8 9 10 11 12 13 14 15 16 17 18 19 20 21 22 23 24 25 26 27 28
537
FTUS41 KRLX 221739
TAFBKW
TAF
KBKW 221739Z 2218/2318 24007KT P6SM SHRA VCTS BKN035CB
     FM230000 22005KT P6SM BKN100
     FM230600 23004KT P6SM SHRA BR SCT045
     FM230800 25004KT 5SM SHRA BR BKN015
     FM231000 VRB03KT 4SM SHRA BR BKN006
     FM231400 30004KT P6SM BKN015=

USA.gov is the U.S. government's official web portal to all federal, state and local government web resources and services.